Time;durP1;ratioP1;P1;durP2;ratioP2;P2;SDS_P1;SDS_P2;PMS_P1;PMS_P2;Temp;Humidity;BMP_temperature;BMP_pressure;BME280_temperature;BME280_humidity;BME280_pressure;Samples;Min_cycle;Max_cycle;Signal;HPM_P1;HPM_P2
2021/09/19 00:01:23;;;;;;;7.07;5.75;;;;;;;11.10;95.58;96012.69;5285450;56;20128;-74
2021/09/19 00:06:26;;;;;;;6.68;5.82;;;;;;;11.03;95.29;96011.03;5285132;56;20147;-74
2021/09/19 00:11:29;;;;;;;6.22;5.60;;;;;;;11.06;94.90;96015.63;5285251;56;20201;-74
2021/09/19 00:16:31;;;;;;;6.03;5.45;;;;;;;11.09;95.09;96014.69;5285465;56;20588;-75
2021/09/19 00:21:34;;;;;;;5.88;5.28;;;;;;;10.99;95.01;96026.28;5285214;56;20158;-74
2021/09/19 00:26:36;;;;;;;6.45;5.22;;;;;;;10.94;95.00;96016.66;5275904;56;20225;-75
2021/09/19 00:31:39;;;;;;;6.80;5.57;;;;;;;10.89;94.85;96017.28;5285068;56;20261;-76
2021/09/19 00:36:42;;;;;;;7.97;6.70;;;;;;;10.85;95.15;96019.47;5284869;56;20119;-75
2021/09/19 00:41:44;;;;;;;9.30;6.82;;;;;;;10.75;95.35;96010.47;5284952;56;20576;-74
2021/09/19 00:46:46;;;;;;;6.68;5.65;;;;;;;10.75;95.09;96004.19;5284969;56;20142;-74
2021/09/19 00:51:49;;;;;;;11.07;5.88;;;;;;;10.69;95.30;96009.59;5275706;56;20115;-75
2021/09/19 00:56:56;;;;;;;8.30;6.20;;;;;;;10.64;95.17;96004.72;5284524;56;20128;-75
2021/09/19 01:01:59;;;;;;;8.68;7.43;;;;;;;10.59;95.15;95999.06;5284626;56;20115;-75
2021/09/19 01:07:01;;;;;;;8.77;6.93;;;;;;;10.51;95.33;95995.13;5284183;56;20127;-76
2021/09/19 01:12:04;;;;;;;6.28;5.68;;;;;;;10.59;95.19;95994.31;5284476;56;20128;-75
2021/09/19 01:17:08;;;;;;;6.10;5.43;;;;;;;10.62;94.98;95987.06;5284236;56;20124;-75
2021/09/19 01:22:10;;;;;;;7.30;5.70;;;;;;;10.49;94.67;95989.31;5284315;56;20129;-75
2021/09/19 01:27:12;;;;;;;6.43;5.65;;;;;;;10.35;94.72;95984.47;5284016;56;20142;-75
2021/09/19 01:32:21;;;;;;;6.28;5.47;;;;;;;10.35;94.52;95979.72;5284564;56;20133;-74
2021/09/19 01:37:23;;;;;;;6.80;5.50;;;;;;;10.33;94.74;95970.38;5274915;56;20115;-75
2021/09/19 01:42:27;;;;;;;6.55;5.55;;;;;;;10.25;94.87;95964.41;5284040;56;20179;-74
2021/09/19 01:47:29;;;;;;;10.07;5.55;;;;;;;10.16;94.87;95964.47;5283339;56;20155;-74
2021/09/19 01:52:32;;;;;;;6.53;5.15;;;;;;;10.24;94.49;95962.13;5283675;56;20655;-75
2021/09/19 01:57:35;;;;;;;8.27;6.45;;;;;;;10.26;94.80;95954.16;5283266;56;20120;-75
2021/09/19 02:02:39;;;;;;;6.90;5.85;;;;;;;10.23;95.30;95953.09;5284125;56;20642;-75
2021/09/19 02:07:41;;;;;;;9.80;5.88;;;;;;;10.38;94.06;95958.69;5283507;56;20163;-75
2021/09/19 02:12:44;;;;;;;8.38;6.38;;;;;;;10.17;94.65;95951.44;5274909;56;20137;-75
2021/09/19 02:17:47;;;;;;;9.32;6.65;;;;;;;9.99;95.17;95944.00;5283737;56;20124;-74
2021/09/19 02:22:49;;;;;;;8.93;6.97;;;;;;;10.06;96.11;95936.09;5283613;56;20665;-75
2021/09/19 02:27:52;;;;;;;8.95;7.47;;;;;;;10.12;96.66;95933.50;5283272;56;20128;-74
2021/09/19 02:32:54;;;;;;;10.82;7.20;;;;;;;10.17;96.84;95932.09;5283312;56;20128;-75
2021/09/19 02:37:56;;;;;;;10.35;7.70;;;;;;;10.14;97.00;95920.00;5283016;56;20574;-75
2021/09/19 02:43:00;;;;;;;11.23;7.75;;;;;;;10.17;97.23;95934.88;5274203;56;20140;-75
2021/09/19 02:48:02;;;;;;;10.02;6.32;;;;;;;10.15;97.56;95918.00;5283211;56;20234;-75
2021/09/19 02:53:05;;;;;;;8.88;6.85;;;;;;;10.21;96.98;95914.13;5283085;56;20134;-73
2021/09/19 02:58:07;;;;;;;9.00;6.20;;;;;;;10.20;97.93;95900.81;5282273;56;20225;-74
2021/09/19 03:03:09;;;;;;;9.82;7.60;;;;;;;10.34;98.47;95900.84;5282857;56;20664;-74
2021/09/19 03:08:12;;;;;;;10.98;8.40;;;;;;;10.50;99.25;95896.91;5285270;56;20218;-75
2021/09/19 03:13:15;;;;;;;11.07;7.93;;;;;;;10.61;99.06;95888.84;5286148;56;20147;-75
2021/09/19 03:18:17;;;;;;;8.45;6.75;;;;;;;10.72;98.87;95886.28;5285987;56;20727;-75
2021/09/19 03:23:19;;;;;;;10.52;8.10;;;;;;;10.59;100.00;95875.50;5286118;56;20120;-74
2021/09/19 03:28:22;;;;;;;7.88;7.03;;;;;;;10.64;99.02;95868.56;5285760;56;20164;-75
2021/09/19 03:33:24;;;;;;;7.57;6.60;;;;;;;10.64;99.01;95858.28;5285934;56;20128;-76
2021/09/19 03:38:26;;;;;;;15.30;6.78;;;;;;;10.81;98.48;95861.31;5285692;56;20128;-76
2021/09/19 03:43:29;;;;;;;8.82;6.72;;;;;;;10.86;97.94;95863.44;5285865;56;20093;-75
2021/09/19 03:48:31;;;;;;;9.10;5.75;;;;;;;10.74;98.47;95850.66;5285412;56;20699;-75
2021/09/19 03:53:33;;;;;;;8.75;6.82;;;;;;;10.74;98.76;95853.44;5276979;56;20128;-74
2021/09/19 03:58:36;;;;;;;7.07;6.38;;;;;;;10.86;98.44;95851.63;5284717;56;20106;-75
2021/09/19 04:03:38;;;;;;;6.82;6.13;;;;;;;10.90;98.06;95849.44;5285429;56;20123;-76
2021/09/19 04:08:40;;;;;;;7.20;6.47;;;;;;;10.85;97.36;95856.41;5285190;56;20659;-75
2021/09/19 04:13:43;;;;;;;7.32;6.50;;;;;;;10.79;97.43;95850.00;5285622;56;20119;-76
2021/09/19 04:18:45;;;;;;;11.27;6.15;;;;;;;10.82;96.10;95857.34;5284892;56;20124;-75
2021/09/19 04:23:47;;;;;;;6.35;5.72;;;;;;;10.39;97.75;95858.78;5285569;56;20124;-75
2021/09/19 04:28:52;;;;;;;7.18;6.32;;;;;;;10.44;99.00;95860.13;5284807;56;20119;-75
2021/09/19 04:33:54;;;;;;;7.82;5.68;;;;;;;10.18;100.00;95859.84;5276047;56;20115;-75
2021/09/19 04:38:56;;;;;;;5.60;5.10;;;;;;;10.24;100.00;95855.22;5285258;56;20270;-75
2021/09/19 04:43:59;;;;;;;6.07;4.93;;;;;;;10.27;99.85;95872.84;5284915;56;20133;-76
2021/09/19 04:49:01;;;;;;;6.75;5.55;;;;;;;10.46;99.14;95880.53;5284918;56;20128;-75
2021/09/19 04:54:04;;;;;;;6.25;5.50;;;;;;;10.71;98.36;95885.53;5284825;56;20578;-76
2021/09/19 04:59:06;;;;;;;7.63;6.20;;;;;;;10.76;98.13;95884.84;5284261;56;20137;-75
2021/09/19 05:04:09;;;;;;;8.80;6.80;;;;;;;10.97;97.65;95894.03;5275590;56;20132;-76
2021/09/19 05:09:11;;;;;;;7.05;5.93;;;;;;;10.77;98.51;95885.63;5284480;56;20137;-75
2021/09/19 05:14:13;;;;;;;8.90;7.60;;;;;;;10.98;99.59;95881.75;5284438;56;20120;-76
2021/09/19 05:19:16;;;;;;;9.65;8.07;;;;;;;11.26;99.51;95882.25;5284153;56;20115;-75
2021/09/19 05:24:18;;;;;;;9.23;7.75;;;;;;;11.29;98.59;95868.22;5284353;56;20111;-75
2021/09/19 05:29:21;;;;;;;9.93;7.55;;;;;;;11.11;99.63;95879.47;5283706;56;20128;-75
2021/09/19 05:34:23;;;;;;;13.70;7.82;;;;;;;11.35;98.25;95891.19;5299152;45;20141;-75
2021/09/19 05:39:26;;;;;;;9.05;7.47;;;;;;;11.46;96.47;95899.72;5292283;55;20124;-77
2021/09/19 05:44:28;;;;;;;11.73;8.65;;;;;;;11.51;96.70;95906.56;5287563;55;20119;-75
2021/09/19 05:49:32;;;;;;;14.52;7.60;;;;;;;11.41;96.73;95892.06;5287916;55;20115;-76
2021/09/19 05:54:34;;;;;;;12.60;8.18;;;;;;;11.64;96.43;95909.03;5286788;55;20217;-76
2021/09/19 05:59:37;;;;;;;12.02;8.77;;;;;;;11.84;95.70;95906.34;5286375;56;20642;-76
2021/09/19 06:04:40;;;;;;;10.57;7.63;;;;;;;11.94;95.83;95902.25;5288243;55;20133;-76
2021/09/19 06:09:42;;;;;;;13.23;7.68;;;;;;;11.52;96.51;95902.56;5287140;56;20239;-76
2021/09/19 06:14:45;;;;;;;8.35;7.55;;;;;;;11.31;97.53;95898.16;5287422;55;20119;-75
2021/09/19 06:19:48;;;;;;;14.25;7.78;;;;;;;11.10;97.72;95894.56;5291751;55;20127;-76
2021/09/19 06:24:51;;;;;;;8.60;7.22;;;;;;;11.46;96.82;95891.41;5292058;56;20208;-76
2021/09/19 06:29:53;;;;;;;8.20;7.00;;;;;;;11.54;96.44;95892.53;5295946;56;20098;-75
2021/09/19 06:34:56;;;;;;;9.68;5.93;;;;;;;11.50;96.45;95883.66;5293546;56;20678;-75
2021/09/19 06:39:58;;;;;;;9.13;7.65;;;;;;;11.86;96.12;95881.72;5288521;56;20590;-75
2021/09/19 06:45:01;;;;;;;7.75;6.60;;;;;;;12.43;92.90;95885.53;5290080;55;20124;-76
2021/09/19 06:50:04;;;;;;;7.68;6.35;;;;;;;12.75;91.37;95883.66;5289822;55;20703;-76
2021/09/19 06:55:07;;;;;;;8.75;7.20;;;;;;;12.46;92.66;95883.81;5292810;55;20676;-76
2021/09/19 07:00:10;;;;;;;7.30;6.32;;;;;;;12.70;92.68;95870.47;5293019;56;20133;-76
2021/09/19 07:05:12;;;;;;;7.32;5.78;;;;;;;12.60;91.67;95889.25;5292502;55;20677;-77
2021/09/19 07:10:15;;;;;;;7.82;6.40;;;;;;;13.30;90.03;95866.81;5290898;56;20120;-76
2021/09/19 07:15:17;;;;;;;6.80;5.90;;;;;;;13.74;88.00;95877.53;5289982;56;20111;-76
2021/09/19 07:20:20;;;;;;;7.45;6.43;;;;;;;13.33;88.82;95888.03;5293832;55;20138;-76
2021/09/19 07:25:22;;;;;;;10.25;7.45;;;;;;;13.09;91.21;95882.78;5297657;55;20128;-76
2021/09/19 07:30:25;;;;;;;10.50;8.25;;;;;;;12.76;93.08;95876.84;5290238;56;20124;-75
2021/09/19 07:35:28;;;;;;;12.48;8.85;;;;;;;13.56;90.74;95881.44;5292410;56;20119;-74
2021/09/19 07:40:31;;;;;;;13.90;9.82;;;;;;;13.76;90.70;95880.56;5291967;55;20124;-75
2021/09/19 07:45:34;;;;;;;13.80;10.85;;;;;;;13.67;92.02;95889.84;5290880;56;20139;-75
2021/09/19 07:50:37;;;;;;;16.08;10.95;;;;;;;13.86;90.06;95898.59;5292569;55;20137;-76
2021/09/19 07:55:40;;;;;;;15.60;11.85;;;;;;;13.86;89.61;95885.47;5292168;55;20133;-76
2021/09/19 08:00:42;;;;;;;18.23;12.63;;;;;;;14.55;88.09;95891.69;5291357;55;20115;-75
2021/09/19 08:05:45;;;;;;;19.25;13.90;;;;;;;14.03;90.46;95900.22;5292126;56;20115;-76
2021/09/19 08:10:47;;;;;;;19.98;13.55;;;;;;;14.32;89.23;95897.16;5299797;55;20137;-75
2021/09/19 08:15:50;;;;;;;23.23;14.48;;;;;;;14.56;88.88;95898.78;5299331;56;20102;-75
2021/09/19 08:20:52;;;;;;;23.35;15.23;;;;;;;14.86;88.87;95903.44;5299711;55;20120;-74
2021/09/19 08:25:55;;;;;;;22.73;14.35;;;;;;;14.88;87.61;95900.91;5299097;55;20102;-75
2021/09/19 08:30:58;;;;;;;20.38;12.10;;;;;;;15.10;86.90;95903.03;5301026;55;20205;-76
2021/09/19 08:36:00;;;;;;;14.82;10.32;;;;;;;15.26;84.82;95896.75;5299705;55;20120;-75
2021/09/19 08:41:03;;;;;;;13.75;9.85;;;;;;;15.47;84.13;95906.41;5300073;56;20106;-76
2021/09/19 08:46:05;;;;;;;18.42;11.38;;;;;;;15.10;85.52;95903.03;5299182;55;20667;-75
2021/09/19 08:51:07;;;;;;;15.57;10.85;;;;;;;15.73;84.63;95912.50;5300833;56;20141;-76
2021/09/19 08:56:10;;;;;;;11.90;8.98;;;;;;;16.03;83.29;95917.56;5300420;56;20119;-75
2021/09/19 09:01:12;;;;;;;16.80;11.45;;;;;;;16.81;80.35;95907.00;5299189;55;20119;-75
2021/09/19 09:06:20;;;;;;;11.48;9.48;;;;;;;17.29;77.07;95909.31;5299426;55;20119;-76
2021/09/19 09:11:28;;;;;;;11.77;9.32;;;;;;;16.94;77.97;95898.81;5295563;55;20202;-74
2021/09/19 09:16:30;;;;;;;11.68;9.45;;;;;;;18.13;75.26;95894.25;5278179;55;20152;-73
2021/09/19 09:21:32;;;;;;;13.68;9.82;;;;;;;18.71;71.20;95896.69;5272794;56;20129;-72
2021/09/19 09:26:40;;;;;;;9.43;8.35;;;;;;;19.10;67.97;95894.94;5272117;56;20121;-74
2021/09/19 09:31:48;;;;;;;11.60;8.43;;;;;;;18.45;73.39;95886.81;5263171;56;20125;-73
2021/09/19 09:36:52;;;;;;;8.93;7.72;;;;;;;19.17;66.92;95888.75;5281394;56;20130;-74
2021/09/19 09:42:00;;;;;;;9.40;7.75;;;;;;;18.90;69.30;95889.09;5282028;56;20125;-73
2021/09/19 09:47:06;;;;;;;8.65;7.75;;;;;;;19.89;67.13;95887.69;5275769;56;20169;-74
2021/09/19 09:52:11;;;;;;;8.68;7.55;;;;;;;19.86;66.00;95880.34;5276963;56;20125;-73
2021/09/19 09:57:27;;;;;;;9.73;8.35;;;;;;;18.88;68.32;95888.88;5276594;56;20103;-73
2021/09/19 10:02:32;;;;;;;9.65;7.70;;;;;;;19.22;66.57;95879.50;5275732;56;20126;-74
2021/09/19 10:07:38;;;;;;;9.75;7.68;;;;;;;17.83;72.34;95882.28;5276694;56;20133;-74
2021/09/19 10:12:42;;;;;;;8.35;7.38;;;;;;;18.82;72.00;95882.56;5267428;56;20133;-74
2021/09/19 10:17:44;;;;;;;8.27;7.13;;;;;;;19.29;67.41;95884.50;5279033;55;20699;-73
2021/09/19 10:23:08;;;;;;;7.63;6.75;;;;;;;18.67;67.95;95873.84;5296983;55;20157;-72
2021/09/19 10:28:17;;;;;;;7.28;6.57;;;;;;;19.13;66.24;95881.94;5292857;56;20116;-74
2021/09/19 10:33:34;;;;;;;6.20;5.60;;;;;;;18.65;67.03;95868.03;5290150;56;20124;-75
2021/09/19 10:38:42;;;;;;;6.32;5.70;;;;;;;19.28;67.87;95866.19;5297633;56;20473;-74
2021/09/19 10:43:51;;;;;;;5.80;5.20;;;;;;;19.99;65.14;95871.97;5288839;56;20120;-73
2021/09/19 10:49:17;;;;;;;6.00;5.47;;;;;;;20.24;62.74;95861.34;5297981;56;20115;-73
2021/09/19 10:54:47;;;;;;;5.15;4.65;;;;;;;21.99;57.89;95854.56;5289299;56;20102;-74
2021/09/19 11:00:08;;;;;;;5.63;4.30;;;;;;;22.84;54.33;95863.09;5288568;56;20098;-73
2021/09/19 11:05:32;;;;;;;4.68;4.28;;;;;;;21.81;55.11;95863.19;5292217;56;20114;-73
2021/09/19 11:10:46;;;;;;;7.88;4.78;;;;;;;22.81;55.19;95864.94;5286143;56;20132;-74
2021/09/19 11:16:16;;;;;;;4.88;4.47;;;;;;;21.59;55.47;95856.03;5295121;56;20111;-74
2021/09/19 11:21:19;;;;;;;6.40;4.93;;;;;;;20.35;59.74;95852.00;5294311;56;20133;-74
2021/09/19 11:26:24;;;;;;;4.93;4.53;;;;;;;19.82;62.75;95849.06;5298465;56;20116;-73
2021/09/19 11:31:27;;;;;;;5.30;4.80;;;;;;;19.59;62.56;95855.56;5290370;56;20142;-72
2021/09/19 11:36:31;;;;;;;5.68;4.72;;;;;;;22.22;57.80;95839.91;5314058;44;20764;-74
2021/09/19 11:41:34;;;;;;;4.70;4.30;;;;;;;22.54;53.59;95854.41;5306945;55;20122;-74
2021/09/19 11:46:41;;;;;;;5.10;4.00;;;;;;;22.14;54.40;95851.88;5297178;55;20114;-75
2021/09/19 11:51:45;;;;;;;7.03;4.35;;;;;;;22.50;55.14;95846.31;5298272;55;20136;-75
2021/09/19 11:56:48;;;;;;;4.15;3.75;;;;;;;21.51;55.74;95855.19;5306340;55;20118;-75
2021/09/19 12:01:50;;;;;;;3.88;3.58;;;;;;;20.43;56.18;95844.44;5307071;55;20114;-75
2021/09/19 12:06:55;;;;;;;3.85;3.50;;;;;;;22.29;52.12;95845.63;5306241;55;20754;-75
2021/09/19 12:11:57;;;;;;;3.80;3.05;;;;;;;22.69;51.52;95848.91;5306260;55;20136;-75
2021/09/19 12:17:07;;;;;;;3.60;3.30;;;;;;;23.33;48.83;95852.41;5296085;55;20115;-75
2021/09/19 12:22:20;;;;;;;3.75;3.45;;;;;;;24.21;49.46;95851.66;5293331;55;20115;-74
2021/09/19 12:27:25;;;;;;;5.70;3.53;;;;;;;24.43;49.13;95857.84;5295749;55;20137;-74
2021/09/19 12:32:40;;;;;;;4.40;2.97;;;;;;;21.93;51.12;95861.63;5297414;55;20118;-75
2021/09/19 12:37:45;;;;;;;3.08;2.70;;;;;;;21.91;55.36;95850.19;5292677;55;20105;-74
2021/09/19 12:42:49;;;;;;;3.10;2.90;;;;;;;21.61;53.42;95844.22;5301799;55;20114;-75
2021/09/19 12:47:56;;;;;;;3.58;2.80;;;;;;;23.36;48.22;95831.56;5292790;55;20119;-76
2021/09/19 12:52:58;;;;;;;2.95;2.70;;;;;;;23.23;47.90;95834.50;5293301;55;20146;-73
2021/09/19 12:58:03;;;;;;;2.17;2.08;;;;;;;21.98;47.70;95833.34;5294473;55;20123;-73
2021/09/19 13:03:08;;;;;;;2.33;2.22;;;;;;;21.20;52.38;95828.06;5304778;55;20096;-74
2021/09/19 13:08:14;;;;;;;5.37;2.73;;;;;;;20.73;56.56;95823.16;5305046;55;20717;-73
2021/09/19 13:13:20;;;;;;;2.83;2.63;;;;;;;20.91;53.86;95827.13;5305452;55;20128;-74
2021/09/19 13:18:22;;;;;;;2.20;2.10;;;;;;;21.33;53.29;95819.56;5305558;55;20119;-74
2021/09/19 13:23:24;;;;;;;2.80;2.20;;;;;;;22.66;51.90;95807.78;5305217;55;20124;-73
2021/09/19 13:28:27;;;;;;;2.53;2.33;;;;;;;23.91;48.28;95811.34;5305324;55;20132;-73
2021/09/19 13:33:29;;;;;;;2.40;2.22;;;;;;;24.10;47.26;95804.06;5305317;55;20118;-74
2021/09/19 13:38:32;;;;;;;2.20;2.10;;;;;;;24.56;42.75;95810.38;5299325;55;20699;-74
2021/09/19 13:43:35;;;;;;;2.20;1.75;;;;;;;22.53;49.33;95816.28;5301740;55;20114;-75
2021/09/19 13:48:37;;;;;;;2.40;2.03;;;;;;;21.77;52.61;95807.28;5303054;55;20151;-76
2021/09/19 13:53:40;;;;;;;2.10;2.00;;;;;;;21.21;52.61;95805.03;5304296;55;20231;-74
2021/09/19 13:58:42;;;;;;;2.13;2.03;;;;;;;21.38;53.57;95804.66;5304507;55;20651;-76
2021/09/19 14:03:45;;;;;;;1.98;1.88;;;;;;;20.46;54.09;95804.06;5304761;55;20120;-74
2021/09/19 14:08:47;;;;;;;2.03;1.92;;;;;;;20.17;54.45;95803.06;5297830;55;20123;-74
2021/09/19 14:13:49;;;;;;;1.88;1.77;;;;;;;19.86;55.75;95813.06;5308994;55;20127;-76
2021/09/19 14:18:52;;;;;;;2.03;1.60;;;;;;;19.77;58.73;95796.63;5304511;55;20119;-74
2021/09/19 14:23:55;;;;;;;2.08;1.95;;;;;;;20.26;58.57;95799.88;5304141;55;20106;-72
2021/09/19 14:28:57;;;;;;;2.10;2.00;;;;;;;20.15;56.63;95799.28;5304008;55;20101;-72
2021/09/19 14:34:00;;;;;;;1.75;1.65;;;;;;;19.90;58.15;95796.66;5309405;55;20127;-72
2021/09/19 14:39:03;;;;;;;7.70;1.85;;;;;;;19.54;59.57;95805.97;5308696;55;20581;-73
2021/09/19 14:44:06;;;;;;;1.90;1.80;;;;;;;19.50;58.23;95811.88;5309656;55;20650;-73
2021/09/19 14:49:08;;;;;;;1.83;1.73;;;;;;;19.45;58.63;95809.91;5304487;55;20124;-73
2021/09/19 14:54:11;;;;;;;1.60;1.50;;;;;;;19.72;59.79;95822.72;5304631;55;20124;-73
2021/09/19 14:59:14;;;;;;;1.75;1.65;;;;;;;19.78;58.38;95817.03;5299911;55;20169;-71
2021/09/19 15:04:16;;;;;;;1.40;1.40;;;;;;;19.54;58.09;95829.13;5307522;55;20114;-73
2021/09/19 15:09:18;;;;;;;1.90;1.80;;;;;;;19.68;58.96;95827.88;5307600;55;20587;-73
2021/09/19 15:14:21;;;;;;;1.40;1.40;;;;;;;19.56;59.07;95828.63;5300739;55;20230;-73
2021/09/19 15:19:23;;;;;;;1.55;1.45;;;;;;;19.52;61.55;95833.75;5308402;55;20311;-73
2021/09/19 15:24:27;;;;;;;1.85;1.75;;;;;;;19.43;61.33;95840.50;5307800;55;20110;-72
2021/09/19 15:29:29;;;;;;;1.90;1.80;;;;;;;18.88;60.88;95835.69;5316532;55;20114;-73
2021/09/19 15:34:31;;;;;;;2.00;1.90;;;;;;;18.80;61.82;95835.53;5315976;55;20123;-73
2021/09/19 15:39:36;;;;;;;1.70;1.60;;;;;;;18.71;63.87;95837.91;5307404;55;20114;-73
2021/09/19 15:44:38;;;;;;;1.80;1.65;;;;;;;18.51;63.19;95834.34;5315790;55;20607;-73
2021/09/19 15:49:43;;;;;;;1.73;1.63;;;;;;;18.43;62.45;95833.38;5309300;55;20118;-73
2021/09/19 15:54:45;;;;;;;1.90;1.80;;;;;;;18.48;62.85;95841.00;5310076;55;20663;-74
2021/09/19 15:59:48;;;;;;;1.70;1.60;;;;;;;18.41;63.61;95835.97;5305616;55;20115;-73
2021/09/19 16:04:50;;;;;;;1.63;1.52;;;;;;;18.42;63.41;95829.09;5300608;55;20684;-73
2021/09/19 16:09:52;;;;;;;1.90;1.80;;;;;;;18.41;64.33;95838.75;5307019;55;20159;-72
2021/09/19 16:14:55;;;;;;;1.85;1.70;;;;;;;18.52;63.54;95838.66;5303618;55;20238;-72
2021/09/19 16:20:00;;;;;;;1.60;1.50;;;;;;;18.38;65.21;95845.41;5307018;55;20141;-73
2021/09/19 16:25:02;;;;;;;1.80;1.70;;;;;;;18.53;65.29;95851.38;5296120;55;20118;-72
2021/09/19 16:30:05;;;;;;;1.90;1.80;;;;;;;18.00;66.51;95859.78;5311030;55;20124;-73
2021/09/19 16:35:09;;;;;;;2.20;2.00;;;;;;;17.92;66.43;95856.81;5302455;55;20127;-73
2021/09/19 16:40:12;;;;;;;1.90;1.75;;;;;;;17.70;66.99;95854.22;5309516;55;20140;-73
2021/09/19 16:45:19;;;;;;;2.38;2.25;;;;;;;17.56;67.73;95858.13;5315845;55;20124;-73
2021/09/19 16:50:22;;;;;;;2.22;2.03;;;;;;;17.46;69.12;95865.28;5316101;55;20113;-73
2021/09/19 16:55:25;;;;;;;2.97;2.17;;;;;;;17.35;70.71;95877.28;5307241;55;20158;-72
2021/09/19 17:00:27;;;;;;;2.20;1.80;;;;;;;17.20;70.63;95880.44;5300971;55;21100;-73
2021/09/19 17:05:30;;;;;;;2.00;1.90;;;;;;;17.14;72.17;95881.75;5304133;55;20214;-72
2021/09/19 17:10:32;;;;;;;2.35;2.00;;;;;;;16.99;72.15;95884.84;5305293;55;20132;-73
2021/09/19 17:15:35;;;;;;;2.35;2.03;;;;;;;16.88;74.93;95896.06;5297100;55;20233;-73
2021/09/19 17:20:37;;;;;;;1.92;1.83;;;;;;;16.84;74.20;95897.63;5304416;55;20114;-73
2021/09/19 17:25:39;;;;;;;2.30;2.10;;;;;;;16.64;74.94;95904.31;5302830;55;20136;-73
2021/09/19 17:30:42;;;;;;;2.38;2.17;;;;;;;16.54;74.71;95910.66;5306919;55;20622;-72
2021/09/19 17:35:44;;;;;;;2.20;1.88;;;;;;;16.56;74.68;95908.88;5317659;44;20226;-74
2021/09/19 17:40:47;;;;;;;1.80;1.70;;;;;;;16.54;75.26;95919.03;5320174;55;22323;-73
2021/09/19 17:45:49;;;;;;;2.25;2.05;;;;;;;16.35;74.51;95925.13;5324588;55;20101;-73
2021/09/19 17:50:52;;;;;;;2.00;1.90;;;;;;;16.37;75.10;95938.56;5322975;55;20122;-72
2021/09/19 17:55:55;;;;;;;3.80;1.90;;;;;;;16.28;74.71;95930.47;5325091;55;20089;-72
2021/09/19 18:00:59;;;;;;;2.17;2.00;;;;;;;16.27;76.01;95932.50;5322652;55;20144;-72
2021/09/19 18:06:02;;;;;;;2.20;2.00;;;;;;;16.09;75.40;95941.38;5328410;55;20093;-72
2021/09/19 18:11:04;;;;;;;2.05;1.95;;;;;;;15.83;76.31;95937.34;5331048;55;20105;-76
2021/09/19 18:16:07;;;;;;;1.77;1.67;;;;;;;15.84;77.32;95941.63;5344923;55;20211;-75
2021/09/19 18:21:10;;;;;;;2.10;2.00;;;;;;;15.64;77.69;95943.41;5329230;55;20119;-73
2021/09/19 18:26:12;;;;;;;2.85;2.00;;;;;;;15.56;77.90;95953.50;5325969;55;20125;-72
2021/09/19 18:31:15;;;;;;;2.05;1.95;;;;;;;15.40;78.15;95959.75;5329361;55;20118;-73
2021/09/19 18:36:18;;;;;;;1.75;1.65;;;;;;;15.44;79.05;95965.13;5336183;55;20109;-73
2021/09/19 18:41:21;;;;;;;2.17;2.08;;;;;;;15.34;79.31;95970.13;5320157;55;20083;-72
2021/09/19 18:46:23;;;;;;;2.50;2.05;;;;;;;15.28;79.00;95974.94;5333289;55;20186;-74
2021/09/19 18:51:26;;;;;;;2.78;2.58;;;;;;;15.28;79.91;95991.63;5332945;55;20191;-73
2021/09/19 18:56:30;;;;;;;2.55;2.35;;;;;;;15.36;79.46;95997.47;5331153;55;20117;-73
2021/09/19 19:01:32;;;;;;;2.58;2.38;;;;;;;15.32;79.18;95997.72;5333145;55;20122;-72
2021/09/19 19:06:35;;;;;;;2.50;2.30;;;;;;;15.28;78.82;96005.56;5330651;55;20127;-74
2021/09/19 19:11:38;;;;;;;2.75;2.55;;;;;;;15.02;80.33;96013.28;5325734;55;20096;-74
2021/09/19 19:16:40;;;;;;;2.80;2.53;;;;;;;15.06;80.29;96019.41;5321232;55;20134;-73
2021/09/19 19:21:43;;;;;;;2.97;2.78;;;;;;;15.01;80.28;96018.09;5327649;55;20135;-74
2021/09/19 19:26:45;;;;;;;3.25;2.92;;;;;;;15.05;79.63;96026.97;5329435;55;20144;-74
2021/09/19 19:31:47;;;;;;;3.13;2.92;;;;;;;14.96;80.06;96024.41;5324441;55;20119;-73
2021/09/19 19:36:51;;;;;;;2.83;2.63;;;;;;;15.03;80.35;96035.06;5313929;55;20234;-73
2021/09/19 19:41:53;;;;;;;2.60;2.40;;;;;;;14.88;81.60;96028.16;5321101;55;20118;-73
2021/09/19 19:46:56;;;;;;;2.83;2.63;;;;;;;14.69;83.19;96033.34;5331430;55;20127;-75
2021/09/19 19:51:58;;;;;;;3.83;3.00;;;;;;;14.52;84.18;96046.34;5334973;55;20122;-74
2021/09/19 19:57:00;;;;;;;3.22;2.95;;;;;;;14.64;83.53;96047.97;5337002;55;20138;-73
2021/09/19 20:02:03;;;;;;;4.85;3.80;;;;;;;14.53;84.23;96058.25;5333113;55;20132;-75
2021/09/19 20:07:07;;;;;;;5.00;3.63;;;;;;;14.58;83.73;96051.97;5327422;55;20088;-74
2021/09/19 20:12:09;;;;;;;3.85;3.55;;;;;;;14.57;84.66;96061.56;5340165;55;20148;-74
2021/09/19 20:17:14;;;;;;;5.22;4.13;;;;;;;14.61;85.31;96065.63;5330357;55;20093;-75
2021/09/19 20:22:17;;;;;;;4.28;3.65;;;;;;;14.65;83.48;96079.34;5328231;55;20127;-73
2021/09/19 20:27:19;;;;;;;4.40;4.00;;;;;;;14.51;82.67;96081.00;5332039;55;20109;-73
2021/09/19 20:32:22;;;;;;;3.80;3.50;;;;;;;14.52;81.22;96079.72;5336522;55;20127;-74
2021/09/19 20:37:24;;;;;;;3.83;3.47;;;;;;;14.53;81.75;96091.63;5333458;55;20276;-76
2021/09/19 20:42:27;;;;;;;3.50;3.20;;;;;;;14.40;82.08;96085.72;5342527;55;20128;-75
2021/09/19 20:47:30;;;;;;;3.90;3.47;;;;;;;14.30;82.58;96091.44;5330825;55;20100;-74
2021/09/19 20:52:32;;;;;;;4.22;3.83;;;;;;;14.08;83.26;96102.31;5321056;55;20127;-74
2021/09/19 20:57:35;;;;;;;3.92;3.53;;;;;;;13.95;84.15;96093.63;5316564;55;20135;-74
2021/09/19 21:02:38;;;;;;;4.20;3.80;;;;;;;13.77;84.83;96098.72;5321718;55;20127;-74
2021/09/19 21:07:41;;;;;;;3.85;3.50;;;;;;;13.86;83.64;96099.34;5333539;55;20578;-75
2021/09/19 21:12:43;;;;;;;4.97;4.47;;;;;;;13.58;85.08;96098.25;5316862;55;20207;-75
2021/09/19 21:17:46;;;;;;;5.07;3.72;;;;;;;13.57;85.33;96108.59;5319440;55;20106;-74
2021/09/19 21:22:48;;;;;;;4.32;3.92;;;;;;;13.39;86.49;96108.09;5328416;55;20122;-76
2021/09/19 21:27:51;;;;;;;5.65;4.72;;;;;;;13.37;86.38;96113.38;5320578;55;20131;-73
2021/09/19 21:32:54;;;;;;;5.88;4.85;;;;;;;13.43;86.58;96112.19;5317359;55;20135;-73
2021/09/19 21:37:56;;;;;;;4.93;4.40;;;;;;;13.35;86.70;96104.78;5325866;55;20118;-73
2021/09/19 21:42:59;;;;;;;6.05;4.20;;;;;;;13.32;86.92;96105.75;5327415;55;20109;-76
2021/09/19 21:48:01;;;;;;;4.90;4.13;;;;;;;13.56;85.88;96122.97;5331132;55;20136;-74
2021/09/19 21:53:04;;;;;;;4.47;4.07;;;;;;;13.55;86.19;96115.88;5327454;55;20123;-73
2021/09/19 21:58:06;;;;;;;3.70;3.40;;;;;;;13.47;86.15;96121.09;5328097;55;20092;-73
2021/09/19 22:03:10;;;;;;;4.30;3.90;;;;;;;13.54;85.38;96117.13;5315715;55;20127;-75
2021/09/19 22:08:13;;;;;;;4.40;4.00;;;;;;;13.41;85.65;96117.47;5314128;55;20110;-73
2021/09/19 22:13:26;;;;;;;6.68;4.38;;;;;;;13.48;85.81;96130.94;5313960;55;20141;-74
2021/09/19 22:18:30;;;;;;;5.68;4.35;;;;;;;13.58;85.14;96121.22;5316836;55;20118;-75
2021/09/19 22:23:32;;;;;;;4.88;4.38;;;;;;;13.61;85.01;96130.59;5316124;55;20122;-74
2021/09/19 22:28:34;;;;;;;4.82;4.35;;;;;;;13.60;85.02;96129.06;5314400;55;20101;-73
2021/09/19 22:33:39;;;;;;;5.70;4.93;;;;;;;13.47;86.32;96132.19;5324015;55;20617;-74
2021/09/19 22:38:41;;;;;;;6.65;4.05;;;;;;;13.52;86.14;96133.50;5320416;55;20676;-74
2021/09/19 22:43:43;;;;;;;5.30;4.72;;;;;;;13.52;86.23;96133.50;5317694;55;20119;-74
2021/09/19 22:48:46;;;;;;;5.90;4.75;;;;;;;13.64;85.90;96130.38;5317485;55;20135;-73
2021/09/19 22:53:48;;;;;;;5.18;4.60;;;;;;;13.59;85.91;96141.44;5316516;55;20131;-73
2021/09/19 22:58:51;;;;;;;5.22;4.43;;;;;;;13.50;86.60;96142.31;5314584;55;20123;-74
2021/09/19 23:03:53;;;;;;;5.38;4.72;;;;;;;13.52;86.64;96139.81;5318232;55;20115;-74
2021/09/19 23:08:56;;;;;;;4.93;4.40;;;;;;;13.59;86.62;96146.97;5317880;55;20119;-73
2021/09/19 23:13:58;;;;;;;4.63;3.80;;;;;;;13.53;86.90;96158.00;5315511;56;20178;-74
2021/09/19 23:19:01;;;;;;;5.20;4.70;;;;;;;13.52;86.95;96150.16;5319179;55;20668;-74
2021/09/19 23:24:04;;;;;;;7.18;4.25;;;;;;;13.48;86.96;96155.16;5324283;55;20119;-73
2021/09/19 23:29:06;;;;;;;4.22;3.83;;;;;;;13.62;86.29;96159.88;5313898;55;20132;-75
2021/09/19 23:34:09;;;;;;;6.00;4.95;;;;;;;13.71;86.16;96159.72;5329147;55;20678;-74
2021/09/19 23:39:11;;;;;;;5.35;4.85;;;;;;;13.53;86.66;96160.00;5327705;55;20735;-75
2021/09/19 23:44:14;;;;;;;6.78;4.82;;;;;;;13.44;86.42;96165.69;5336411;55;20113;-74